Time;durP1;ratioP1;P1;durP2;ratioP2;P2;SDS_P1;SDS_P2;PMS_P1;PMS_P2;Temp;Humidity;BMP_temperature;BMP_pressure;BME280_temperature;BME280_humidity;BME280_pressure;Samples;Min_cycle;Max_cycle;Signal;HPM_P1;HPM_P2
2021/03/10 00:01:01;;;;;;;44.20;26.38;;;4.70;99.90;;;4.46;80.31;101732.00;4252680;27;20403;-77
2021/03/10 00:03:02;;;;;;;44.95;27.45;;;4.70;99.90;;;4.51;81.34;101730.91;4220112;28;20108;-78
2021/03/10 00:05:05;;;;;;;41.92;27.13;;;4.70;99.90;;;4.42;80.64;101722.66;4219947;28;20498;-77
2021/03/10 00:07:06;;;;;;;41.28;25.42;;;4.70;99.90;;;4.21;80.95;101703.06;4219747;28;20502;-78
2021/03/10 00:09:07;;;;;;;42.45;27.70;;;4.60;99.90;;;4.24;81.13;101717.72;4219824;28;20110;-77
2021/03/10 00:11:08;;;;;;;43.35;27.70;;;4.50;99.90;;;4.14;82.16;101704.38;4219579;28;20069;-78
2021/03/10 00:13:09;;;;;;;41.78;26.48;;;4.50;99.90;;;4.20;82.18;101709.22;4219598;28;20047;-78
2021/03/10 00:15:13;;;;;;;43.85;27.33;;;4.50;99.90;;;4.27;82.14;101704.50;4219638;28;20020;-78
2021/03/10 00:17:14;;;;;;;36.70;22.45;;;4.50;99.90;;;4.21;81.01;101700.44;4219822;28;20103;-78
2021/03/10 00:19:15;;;;;;;48.78;28.33;;;4.50;99.90;;;4.04;82.21;101691.94;4219699;28;20032;-78
2021/03/10 00:21:15;;;;;;;47.50;25.88;;;4.40;99.90;;;4.03;82.88;101683.28;4219576;28;20491;-78
2021/03/10 00:23:16;;;;;;;45.10;27.25;;;4.40;99.90;;;4.07;82.68;101691.75;4252120;27;20058;-78
2021/03/10 00:25:18;;;;;;;44.22;25.88;;;4.40;99.90;;;4.12;82.98;101687.94;4219742;28;20031;-77
2021/03/10 00:27:25;;;;;;;42.13;27.65;;;4.40;99.90;;;4.27;80.75;101679.19;4219367;28;20088;-78
2021/03/10 00:29:26;;;;;;;41.35;26.17;;;4.40;99.90;;;4.25;81.52;101675.00;4219454;28;20031;-77
2021/03/10 00:31:27;;;;;;;39.40;26.05;;;4.40;99.90;;;3.99;81.31;101679.19;4219335;28;20482;-78
2021/03/10 00:33:28;;;;;;;43.72;27.00;;;4.40;99.90;;;4.02;81.91;101662.50;4219523;28;20020;-78
2021/03/10 00:35:29;;;;;;;42.38;26.38;;;4.30;99.90;;;4.11;81.69;101680.22;4218066;28;20383;-77
2021/03/10 00:37:30;;;;;;;43.53;26.10;;;4.30;99.90;;;3.96;82.50;101670.69;4219502;28;20020;-78
2021/03/10 00:39:31;;;;;;;43.45;25.90;;;4.30;99.90;;;3.98;82.61;101682.72;4218088;28;20035;-77
2021/03/10 00:41:32;;;;;;;45.38;27.52;;;4.30;99.90;;;3.86;82.45;101676.44;4206829;28;20027;-78
2021/03/10 00:43:33;;;;;;;43.25;28.17;;;4.20;99.90;;;4.02;81.24;101681.59;4218295;28;20091;-78
2021/03/10 00:45:34;;;;;;;44.90;27.13;;;4.20;99.90;;;4.01;82.25;101676.47;4213433;28;20035;-78
2021/03/10 00:47:34;;;;;;;42.90;26.58;;;4.30;99.90;;;3.83;82.43;101667.94;4218969;28;20047;-77
2021/03/10 00:49:38;;;;;;;43.85;27.27;;;4.20;99.90;;;3.75;82.89;101665.81;4218135;28;20032;-78
2021/03/10 00:51:38;;;;;;;46.65;27.45;;;4.20;99.90;;;3.90;82.80;101674.50;4208650;28;20032;-77
2021/03/10 00:53:39;;;;;;;38.92;26.80;;;4.10;99.90;;;3.80;83.64;101670.75;4212987;28;20082;-78
2021/03/10 00:55:40;;;;;;;46.35;27.38;;;4.10;99.90;;;3.78;83.39;101670.84;4218945;28;20023;-78
2021/03/10 00:57:41;;;;;;;44.15;27.73;;;4.00;99.90;;;3.83;83.01;101667.94;4219142;28;20487;-78
2021/03/10 00:59:42;;;;;;;46.00;29.42;;;4.10;99.90;;;3.77;83.13;101652.66;4219164;28;20064;-77
2021/03/10 01:01:43;;;;;;;44.28;27.25;;;4.00;99.90;;;3.82;83.58;101659.28;4218935;28;20027;-78
2021/03/10 01:03:44;;;;;;;43.80;25.83;;;4.10;99.90;;;3.92;82.66;101664.81;4219090;28;20043;-78
2021/03/10 01:05:45;;;;;;;41.28;26.80;;;4.10;99.90;;;3.82;83.64;101666.28;4219273;28;20020;-78
2021/03/10 01:07:46;;;;;;;43.28;25.08;;;4.10;99.90;;;3.77;83.45;101663.09;4219271;28;20038;-78
2021/03/10 01:09:47;;;;;;;42.67;25.27;;;4.10;99.90;;;3.81;82.90;101660.22;4217579;28;20028;-78
2021/03/10 01:11:48;;;;;;;39.50;27.48;;;4.00;99.90;;;3.91;82.22;101663.97;4214904;28;20035;-78
2021/03/10 01:13:48;;;;;;;43.55;25.60;;;4.10;99.90;;;3.86;81.22;101654.72;4218922;28;20541;-77
2021/03/10 01:15:49;;;;;;;43.90;27.88;;;4.20;99.90;;;3.77;82.13;101642.22;4217725;28;20066;-78
2021/03/10 01:17:50;;;;;;;43.70;27.63;;;4.10;99.90;;;3.70;83.27;101651.34;4218922;28;20021;-77
2021/03/10 01:19:51;;;;;;;44.17;27.17;;;4.00;99.90;;;3.50;84.30;101649.03;4218724;28;20028;-78
2021/03/10 01:21:52;;;;;;;45.85;27.58;;;4.00;99.90;;;3.52;84.34;101644.59;4218823;28;20441;-77
2021/03/10 01:23:53;;;;;;;47.38;28.98;;;4.00;99.90;;;3.62;83.82;101643.13;4218831;28;20043;-78
2021/03/10 01:25:54;;;;;;;44.47;26.23;;;3.90;99.90;;;3.74;82.17;101629.34;4217365;28;20035;-77
2021/03/10 01:27:55;;;;;;;41.60;27.33;;;4.00;99.90;;;3.72;83.08;101639.06;4218700;28;20032;-78
2021/03/10 01:29:56;;;;;;;45.78;28.48;;;4.00;99.90;;;3.34;83.22;101582.13;4200409;28;20024;-78
2021/03/10 01:31:57;;;;;;;42.95;26.83;;;4.00;99.90;;;3.59;83.36;101617.22;4212044;28;20047;-77
2021/03/10 01:33:58;;;;;;;45.85;28.23;;;4.00;99.90;;;3.63;83.73;101634.38;4210535;28;20488;-77
2021/03/10 01:35:59;;;;;;;46.47;27.65;;;3.90;99.90;;;3.66;83.97;101636.81;4218499;28;20028;-78
2021/03/10 01:38:00;;;;;;;42.95;26.23;;;4.00;99.90;;;3.63;83.66;101629.16;4218604;28;20054;-77
2021/03/10 01:40:15;;;;;;;48.50;28.10;;;4.00;99.90;;;3.64;83.89;101618.66;4217348;28;20035;-78
2021/03/10 01:42:15;;;;;;;45.20;27.60;;;4.00;99.90;;;3.62;83.42;101614.41;4210070;28;20028;-78
2021/03/10 01:44:16;;;;;;;51.28;29.58;;;4.00;99.90;;;3.68;83.38;101614.06;4214773;28;20499;-78
2021/03/10 01:46:19;;;;;;;48.28;28.60;;;4.00;99.90;;;3.61;84.53;101610.16;4218606;28;20044;-78
2021/03/10 01:48:24;;;;;;;47.47;28.77;;;3.90;99.90;;;3.62;83.77;101603.97;4217062;28;20048;-78
2021/03/10 01:50:27;;;;;;;48.78;28.67;;;4.00;99.90;;;3.56;84.68;101602.56;4213015;28;20502;-78
2021/03/10 01:52:28;;;;;;;44.40;26.60;;;3.90;99.90;;;3.59;84.12;101596.34;4218322;28;20020;-78
2021/03/10 01:54:29;;;;;;;43.92;26.83;;;3.90;99.90;;;3.57;84.01;101598.22;4217272;28;20495;-78
2021/03/10 01:56:30;;;;;;;52.47;30.23;;;3.90;99.90;;;3.45;84.27;101589.34;4207979;28;20117;-78
2021/03/10 01:58:31;;;;;;;53.47;31.65;;;3.80;99.90;;;3.34;84.79;101566.47;4212442;28;20028;-78
2021/03/10 02:00:33;;;;;;;47.63;27.25;;;3.80;99.90;;;3.39;85.00;101588.84;4217098;28;20032;-78
2021/03/10 02:02:34;;;;;;;46.42;27.08;;;3.80;99.90;;;3.49;84.39;101585.63;4205852;28;20024;-78
2021/03/10 02:04:39;;;;;;;46.25;25.70;;;3.70;99.90;;;3.46;83.39;101578.00;4218408;28;20039;-77
2021/03/10 02:07:06;;;;;;;43.83;27.58;;;3.80;99.90;;;3.54;83.98;101582.75;4217276;28;20051;-78
2021/03/10 02:09:16;;;;;;;44.03;26.75;;;3.70;99.90;;;3.28;83.89;101577.28;4206314;28;20028;-77
2021/03/10 02:11:31;;;;;;;54.35;33.00;;;3.70;99.90;;;3.38;83.84;101576.72;4216570;28;20510;-77
2021/03/10 02:13:55;;;;;;;;;;;3.70;99.90;;;3.29;84.84;101576.34;4214532;28;20085;-78
2021/03/10 02:16:29;;;;;;;57.22;32.72;;;3.70;99.90;;;3.28;84.73;101581.66;4208124;28;19991;-77
2021/03/10 02:18:41;;;;;;;53.05;32.00;;;3.60;99.90;;;3.41;84.33;101563.50;4216926;28;20031;-77
2021/03/10 02:20:46;;;;;;;52.63;29.48;;;3.60;99.90;;;3.33;84.39;101559.59;4216562;28;20109;-78
2021/03/10 02:23:11;;;;;;;54.38;29.30;;;3.60;99.90;;;3.35;84.74;101565.56;4210440;28;20032;-77
2021/03/10 02:25:27;;;;;;;49.88;30.25;;;3.60;99.90;;;3.40;84.07;101561.84;4205041;28;20024;-78
2021/03/10 02:27:49;;;;;;;46.25;29.30;;;3.60;99.90;;;3.39;84.86;101573.22;4217938;28;20100;-78
2021/03/10 02:29:50;;;;;;;44.28;28.90;;;3.60;99.90;;;3.23;84.73;101562.81;4217811;28;20124;-77
2021/03/10 02:31:52;;;;;;;46.17;29.25;;;3.60;99.90;;;3.24;84.83;101575.78;4200096;28;20017;-77
2021/03/10 02:33:53;;;;;;;43.33;28.15;;;3.60;99.90;;;3.19;84.97;101561.34;4216812;28;20028;-77
2021/03/10 02:36:04;;;;;;;49.85;29.80;;;3.60;99.90;;;3.31;84.73;101573.66;4233829;28;20020;-78
2021/03/10 02:38:10;;;;;;;46.85;27.45;;;3.60;99.90;;;3.22;86.04;101571.59;4216367;28;20138;-77
2021/03/10 02:40:13;;;;;;;46.78;29.65;;;3.60;99.90;;;3.16;84.85;101564.97;4217980;28;20107;-78
2021/03/10 02:42:15;;;;;;;37.67;23.00;;;3.50;99.90;;;3.23;85.73;101568.03;4216513;28;20028;-77
2021/03/10 02:44:18;;;;;;;46.58;27.40;;;3.50;99.90;;;3.29;85.50;101573.75;4213682;28;20028;-77
2021/03/10 02:46:20;;;;;;;46.85;29.08;;;3.60;99.90;;;3.37;85.02;101580.28;4203784;28;20028;-78
2021/03/10 02:48:23;;;;;;;51.97;29.55;;;3.60;99.90;;;3.19;85.46;101567.41;4250457;28;20046;-77
2021/03/10 02:50:24;;;;;;;49.95;30.15;;;3.60;99.90;;;3.25;85.26;101577.47;4217948;28;20499;-77
2021/03/10 02:52:26;;;;;;;52.10;33.05;;;3.60;99.90;;;3.31;83.69;101571.91;4216717;28;20031;-78
2021/03/10 02:54:28;;;;;;;52.13;30.33;;;3.60;99.90;;;3.08;84.74;101558.50;4204226;28;20117;-78
2021/03/10 02:56:29;;;;;;;47.47;29.02;;;3.60;99.90;;;3.19;84.55;101577.81;4207128;28;20031;-78
2021/03/10 02:58:30;;;;;;;45.03;27.67;;;3.50;99.90;;;3.07;85.03;101578.53;4216519;28;20051;-78
2021/03/10 03:00:31;;;;;;;45.85;28.38;;;3.40;99.90;;;2.88;85.06;101554.44;4214888;28;20032;-78
2021/03/10 03:02:32;;;;;;;46.42;27.33;;;3.50;99.90;;;2.96;85.71;101567.84;4218157;28;20028;-78
2021/03/10 03:04:33;;;;;;;41.80;26.17;;;3.40;99.90;;;2.92;85.69;101561.16;4218114;28;20035;-78
2021/03/10 03:06:34;;;;;;;45.33;28.02;;;3.40;99.90;;;2.98;85.42;101553.00;4217864;28;20038;-78
2021/03/10 03:08:35;;;;;;;46.05;27.50;;;3.30;99.90;;;3.04;84.84;101559.63;4217768;28;20515;-78
2021/03/10 03:10:40;;;;;;;46.25;25.60;;;3.40;99.90;;;3.06;85.40;101548.16;4216224;28;20521;-77
2021/03/10 03:12:43;;;;;;;40.58;25.85;;;3.40;99.90;;;3.13;85.08;101541.69;4206802;28;20529;-77
2021/03/10 03:14:45;;;;;;;45.00;26.42;;;3.40;99.90;;;3.05;85.28;101522.19;4210516;28;20522;-77
2021/03/10 03:16:47;;;;;;;43.47;26.80;;;3.40;99.90;;;3.08;85.65;101538.50;4217753;28;20095;-78
2021/03/10 03:18:48;;;;;;;42.83;26.25;;;3.50;99.90;;;3.06;85.98;101535.13;4217972;28;20467;-77
2021/03/10 03:20:50;;;;;;;42.60;26.90;;;3.50;99.90;;;3.20;84.82;101529.09;4217783;28;20035;-78
2021/03/10 03:22:55;;;;;;;47.78;26.92;;;3.50;99.90;;;3.28;84.83;101540.78;4217778;28;20036;-77
2021/03/10 03:24:56;;;;;;;42.60;27.45;;;3.60;99.90;;;3.28;83.78;101532.97;4219090;28;20089;-78
2021/03/10 03:26:59;;;;;;;43.97;27.83;;;3.60;99.90;;;3.23;84.12;101534.16;4219428;28;20397;-77
2021/03/10 03:29:00;;;;;;;43.63;26.63;;;3.60;99.90;;;3.25;85.26;101534.91;4210859;28;20035;-78
2021/03/10 03:31:03;;;;;;;44.65;27.83;;;3.60;99.90;;;3.17;85.66;101511.88;4215412;28;20035;-77
2021/03/10 03:33:17;;;;;;;43.60;27.35;;;3.60;99.90;;;3.21;85.41;101510.78;4219215;28;20028;-77
2021/03/10 03:35:19;;;;;;;43.95;27.27;;;3.70;99.90;;;3.39;85.34;101518.44;4220751;28;20031;-78
2021/03/10 03:37:20;;;;;;;43.80;27.50;;;3.60;99.90;;;3.40;85.01;101499.28;4219405;28;20039;-77
2021/03/10 03:39:22;;;;;;;39.47;25.65;;;3.70;99.90;;;3.43;84.50;101517.34;4220503;28;20032;-77
2021/03/10 03:41:23;;;;;;;43.75;25.52;;;3.70;99.90;;;3.40;84.58;101510.53;4219015;28;20028;-77
2021/03/10 03:43:27;;;;;;;44.83;28.15;;;3.70;99.90;;;3.37;85.33;101502.91;4209729;28;20116;-77
2021/03/10 03:45:28;;;;;;;41.25;27.08;;;3.70;99.90;;;3.39;84.75;101508.00;4220404;28;20035;-77
2021/03/10 03:47:29;;;;;;;43.85;28.55;;;3.70;99.90;;;3.42;84.88;101502.63;4220294;28;20529;-78
2021/03/10 03:49:30;;;;;;;49.20;30.23;;;3.70;99.90;;;3.40;85.44;101507.09;4219185;28;20068;-77
2021/03/10 03:51:32;;;;;;;45.70;28.23;;;3.50;99.90;;;3.51;85.28;101518.56;4208562;28;20024;-78
2021/03/10 03:53:33;;;;;;;44.60;28.33;;;3.80;99.90;;;3.58;84.90;101513.81;4212995;28;20020;-78
2021/03/10 03:55:35;;;;;;;47.45;29.25;;;3.90;99.90;;;3.57;85.59;101504.31;4220159;28;20152;-78
2021/03/10 03:57:37;;;;;;;42.58;28.23;;;3.90;99.90;;;3.57;85.30;101499.94;4252776;27;20019;-78
2021/03/10 03:59:38;;;;;;;45.67;29.77;;;4.00;99.90;;;3.46;85.73;101512.78;4220282;28;20025;-78
2021/03/10 04:01:39;;;;;;;45.33;27.63;;;4.00;99.90;;;3.47;85.96;101513.59;4220345;28;20063;-78
2021/03/10 04:03:40;;;;;;;52.45;30.95;;;4.00;99.90;;;3.48;86.11;101515.28;4220246;28;20525;-78
2021/03/10 04:05:41;;;;;;;45.30;28.58;;;4.00;99.90;;;3.52;86.39;101511.56;4220166;28;20062;-78
2021/03/10 04:07:57;;;;;;;45.15;29.88;;;4.00;99.90;;;3.45;85.58;101497.22;4220615;28;20061;-78
2021/03/10 04:09:58;;;;;;;46.25;28.83;;;4.00;99.90;;;3.48;86.54;101529.16;4220188;28;20036;-78
2021/03/10 04:12:01;;;;;;;46.78;28.90;;;4.00;99.90;;;3.51;85.89;101525.53;4219844;28;20031;-78
2021/03/10 04:14:02;;;;;;;52.60;30.23;;;4.00;99.90;;;3.51;85.16;101517.72;4252584;27;20034;-77
2021/03/10 04:16:04;;;;;;;47.80;29.20;;;4.00;99.90;;;3.57;85.45;101525.16;4220307;28;20023;-77
2021/03/10 04:18:05;;;;;;;47.80;28.15;;;4.00;99.90;;;3.48;85.71;101515.28;4220099;28;20402;-77
2021/03/10 04:20:13;;;;;;;44.70;29.73;;;4.00;99.90;;;3.57;85.77;101520.78;4219944;28;20028;-78
2021/03/10 04:22:13;;;;;;;44.35;27.38;;;4.00;99.90;;;3.48;85.65;101525.72;4220170;28;20085;-78
2021/03/10 04:24:14;;;;;;;47.42;28.30;;;3.90;99.90;;;3.60;85.46;101531.06;4220102;28;20514;-78
2021/03/10 04:26:15;;;;;;;44.10;28.27;;;3.90;99.90;;;3.54;84.88;101520.97;4219756;28;20032;-77
2021/03/10 04:28:16;;;;;;;46.55;29.02;;;4.00;99.90;;;3.51;85.73;101520.31;4219784;28;20052;-78
2021/03/10 04:30:18;;;;;;;44.17;28.60;;;3.90;99.90;;;3.39;86.31;101501.03;4220070;28;20036;-78
2021/03/10 04:32:19;;;;;;;46.53;28.48;;;4.00;99.90;;;3.56;86.65;101521.72;4219880;28;20016;-78
2021/03/10 04:34:20;;;;;;;45.53;29.88;;;3.90;99.90;;;3.60;86.37;101525.84;4219681;28;20046;-78
2021/03/10 04:36:21;;;;;;;46.22;28.45;;;3.90;99.90;;;3.54;85.78;101520.97;4219403;28;20028;-78
2021/03/10 04:38:21;;;;;;;42.28;28.58;;;4.00;99.90;;;3.55;86.03;101517.44;4219950;28;20495;-78
2021/03/10 04:40:23;;;;;;;41.10;28.50;;;3.90;99.90;;;3.70;85.71;101507.84;4219685;28;20028;-78
2021/03/10 04:42:24;;;;;;;43.55;27.08;;;4.00;99.90;;;3.69;84.49;101508.78;4219687;28;20107;-78
2021/03/10 04:44:25;;;;;;;42.40;26.05;;;4.00;99.90;;;3.51;86.16;101504.66;4219506;28;20096;-78
2021/03/10 04:46:25;;;;;;;41.25;27.95;;;3.90;99.90;;;3.44;86.37;101492.91;4219539;28;20028;-78
2021/03/10 04:48:26;;;;;;;50.15;28.35;;;4.00;99.90;;;3.67;86.28;101513.25;4219428;28;20117;-78
2021/03/10 04:50:27;;;;;;;43.22;26.33;;;4.00;99.90;;;3.62;85.96;101503.09;4219537;28;20097;-78
2021/03/10 04:52:28;;;;;;;45.67;27.50;;;4.00;99.90;;;3.65;86.30;101500.28;4219364;28;20020;-78
2021/03/10 04:54:29;;;;;;;42.33;26.90;;;4.00;99.90;;;3.70;85.88;101498.22;4219608;28;20429;-77
2021/03/10 04:56:30;;;;;;;45.03;28.77;;;4.00;99.90;;;3.54;86.39;101497.50;4219242;28;20024;-78
2021/03/10 04:58:31;;;;;;;43.97;27.58;;;4.00;99.90;;;3.62;86.61;101507.47;4219392;28;20035;-78
2021/03/10 05:00:32;;;;;;;43.42;26.65;;;4.00;99.90;;;3.60;86.34;101496.28;4219029;28;20495;-78
2021/03/10 05:02:35;;;;;;;43.55;26.52;;;4.00;99.90;;;3.57;85.96;101499.09;4219361;28;20081;-78
2021/03/10 05:04:36;;;;;;;42.40;27.80;;;4.00;99.90;;;3.60;86.48;101504.13;4219438;28;20020;-78
2021/03/10 05:06:37;;;;;;;39.85;27.08;;;4.00;99.90;;;3.58;86.02;101492.94;4219238;28;20085;-78
2021/03/10 05:08:38;;;;;;;38.97;25.55;;;4.00;99.90;;;3.64;85.82;101503.00;4219198;28;20046;-77
2021/03/10 05:10:39;;;;;;;46.38;26.38;;;4.00;99.90;;;3.52;86.11;101490.72;4218726;28;20043;-78
2021/03/10 05:12:40;;;;;;;45.20;25.92;;;4.00;99.90;;;3.39;86.23;101479.31;4218034;28;20422;-78
2021/03/10 05:14:41;;;;;;;41.65;25.45;;;3.90;99.90;;;3.44;86.56;101483.34;4211644;28;20058;-78
2021/03/10 05:16:42;;;;;;;43.17;26.48;;;3.90;99.90;;;3.40;87.57;101474.03;4219046;28;20024;-78
2021/03/10 05:18:44;;;;;;;39.97;25.48;;;3.90;99.90;;;3.44;87.42;101482.47;4218947;28;20054;-78
2021/03/10 05:20:45;;;;;;;40.78;26.13;;;3.90;99.90;;;3.33;87.38;101460.53;4219288;28;20028;-78
2021/03/10 05:22:46;;;;;;;41.90;25.30;;;3.90;99.90;;;3.47;87.82;101483.16;4219103;28;20042;-78
2021/03/10 05:24:47;;;;;;;42.78;27.58;;;3.90;99.90;;;3.48;87.55;101468.34;4218951;28;20034;-78
2021/03/10 05:26:48;;;;;;;40.33;25.52;;;4.00;99.90;;;3.60;87.79;101473.66;4217364;28;20102;-78
2021/03/10 05:28:49;;;;;;;41.88;27.58;;;3.90;99.90;;;3.68;87.35;101481.84;4207481;28;20073;-78
2021/03/10 05:30:50;;;;;;;38.97;26.05;;;4.00;99.90;;;3.65;87.92;101473.38;4218920;28;20050;-77
2021/03/10 05:32:51;;;;;;;39.40;25.13;;;4.10;99.90;;;3.71;87.23;101478.19;4218966;28;20571;-78
2021/03/10 05:34:52;;;;;;;41.03;25.52;;;4.10;99.90;;;3.78;87.44;101482.97;4218730;28;20028;-78
2021/03/10 05:36:54;;;;;;;38.90;25.13;;;4.20;99.90;;;3.83;86.49;101477.44;4218790;28;20037;-77
2021/03/10 05:38:55;;;;;;;40.67;25.73;;;4.20;99.90;;;3.74;86.90;101470.19;4218645;28;20016;-78
2021/03/10 05:40:58;;;;;;;40.88;25.73;;;4.20;99.90;;;3.71;86.89;101473.81;4200474;28;20051;-78
2021/03/10 05:42:59;;;;;;;41.08;26.38;;;4.20;99.90;;;3.78;86.72;101469.06;4217493;28;20031;-78
2021/03/10 05:45:00;;;;;;;42.60;26.98;;;4.20;99.90;;;3.55;87.06;101465.28;4206959;28;20062;-77
2021/03/10 05:47:01;;;;;;;44.53;27.85;;;4.40;99.90;;;3.76;86.92;101463.13;4210388;28;20036;-78
2021/03/10 05:49:03;;;;;;;42.60;25.48;;;4.20;99.90;;;3.83;86.40;101475.69;4217437;28;20547;-77
2021/03/10 05:51:04;;;;;;;44.08;26.42;;;4.20;99.90;;;3.87;86.39;101460.69;4216549;28;20032;-78
2021/03/10 05:53:10;;;;;;;45.03;26.23;;;4.30;99.90;;;3.95;85.78;101465.41;4207923;28;20024;-77
2021/03/10 05:55:12;;;;;;;45.25;27.45;;;4.30;99.90;;;3.97;86.07;101468.78;4218607;28;20368;-78
2021/03/10 05:57:13;;;;;;;40.47;26.90;;;4.30;99.90;;;3.88;85.14;101476.22;4216969;28;20027;-77
2021/03/10 05:59:14;;;;;;;46.45;24.95;;;4.30;99.90;;;3.77;85.91;101464.78;4203900;28;20479;-78
2021/03/10 06:01:15;;;;;;;42.50;26.83;;;4.40;99.90;;;3.96;85.59;101457.50;4217400;28;20028;-78
2021/03/10 06:03:16;;;;;;;44.88;28.35;;;4.40;99.90;;;3.78;85.05;101456.03;4210746;28;20023;-78
2021/03/10 06:05:22;;;;;;;43.08;25.73;;;4.40;99.90;;;3.89;86.45;101464.03;4196982;28;20483;-78
2021/03/10 06:07:25;;;;;;;41.78;26.30;;;4.40;99.90;;;3.87;86.15;101458.06;4205433;28;20383;-78
2021/03/10 06:09:26;;;;;;;40.85;24.70;;;4.40;99.90;;;3.83;86.37;101444.38;4217218;28;20394;-78
2021/03/10 06:11:27;;;;;;;40.33;25.17;;;4.40;99.90;;;4.04;85.65;101457.84;4210625;28;20081;-78
2021/03/10 06:13:32;;;;;;;38.75;23.85;;;4.40;99.90;;;4.10;85.54;101454.84;4215361;28;20036;-78
2021/03/10 06:15:41;;;;;;;39.08;24.17;;;4.50;99.90;;;3.95;85.23;101449.75;4217389;28;20062;-78
2021/03/10 06:17:47;;;;;;;37.38;23.30;;;4.50;99.90;;;3.80;86.14;101448.94;4208934;28;20028;-77
2021/03/10 06:19:50;;;;;;;36.33;24.27;;;4.40;99.90;;;3.76;87.03;101452.69;4212987;28;20021;-78
2021/03/10 06:21:51;;;;;;;35.30;23.35;;;4.40;99.90;;;3.83;86.43;101453.97;4218373;28;20028;-77
2021/03/10 06:24:01;;;;;;;35.00;23.45;;;4.30;99.90;;;3.70;87.43;101440.84;4218378;28;20031;-78
2021/03/10 06:26:04;;;;;;;37.40;22.65;;;4.40;99.90;;;3.78;87.57;101448.19;4218141;28;20024;-78
2021/03/10 06:28:05;;;;;;;35.88;23.80;;;4.30;99.90;;;3.65;87.14;101403.75;4216878;28;20020;-78
2021/03/10 06:30:07;;;;;;;35.25;22.58;;;4.40;99.90;;;4.00;87.08;101443.31;4204149;28;20021;-78
2021/03/10 06:32:09;;;;;;;37.40;22.33;;;4.40;99.90;;;3.96;86.37;101448.81;4208806;28;20044;-78
2021/03/10 06:34:14;;;;;;;32.58;21.77;;;4.40;99.90;;;4.06;86.60;101455.97;4218104;28;20024;-78
2021/03/10 06:36:24;;;;;;;36.10;23.20;;;4.40;99.90;;;3.96;86.36;101456.66;4217915;28;20026;-78
2021/03/10 06:38:25;;;;;;;34.38;21.42;;;4.50;99.90;;;3.88;86.72;101454.53;4218248;28;20024;-78
2021/03/10 06:40:26;;;;;;;34.63;22.35;;;4.40;99.90;;;3.84;86.73;101430.41;4217952;28;20043;-78
2021/03/10 06:42:27;;;;;;;37.50;22.35;;;4.40;99.90;;;4.08;86.11;101451.50;4218001;28;20402;-78
2021/03/10 06:44:30;;;;;;;34.60;22.02;;;4.50;99.90;;;3.81;86.35;101433.19;4218013;28;20027;-78
2021/03/10 06:46:31;;;;;;;33.55;21.38;;;4.40;99.90;;;3.92;87.83;101442.94;4218146;28;20031;-78
2021/03/10 06:48:32;;;;;;;32.05;21.83;;;4.50;99.90;;;4.02;87.39;101449.28;4217996;28;20044;-78
2021/03/10 06:50:37;;;;;;;35.80;22.27;;;4.40;99.90;;;4.10;86.70;101439.19;4217969;28;20119;-78
2021/03/10 06:52:38;;;;;;;32.45;20.85;;;4.50;99.90;;;4.01;87.59;101431.09;4217974;28;20107;-78
2021/03/10 06:54:44;;;;;;;32.70;21.65;;;4.50;99.90;;;4.10;87.64;101436.56;4216939;28;20110;-78
2021/03/10 06:56:45;;;;;;;32.80;20.55;;;4.60;99.90;;;4.06;87.35;101426.44;4208553;28;20032;-78
2021/03/10 06:59:01;;;;;;;33.55;22.40;;;4.60;99.90;;;4.09;87.14;101431.47;4213343;28;20102;-78
2021/03/10 07:01:03;;;;;;;33.28;21.00;;;4.60;99.90;;;4.16;86.96;101414.44;4236838;28;20024;-78
2021/03/10 07:03:05;;;;;;;32.00;20.90;;;4.70;99.90;;;4.09;87.18;101419.22;4219944;28;20035;-78
2021/03/10 07:05:07;;;;;;;29.13;19.88;;;4.70;99.90;;;3.94;87.50;101404.56;4214210;28;20031;-78
2021/03/10 07:07:09;;;;;;;33.70;20.52;;;4.70;99.90;;;4.19;87.88;101422.94;4217601;28;20494;-78
2021/03/10 07:09:13;;;;;;;34.15;20.17;;;4.80;99.90;;;4.16;87.32;101425.72;4220930;28;20555;-78
2021/03/10 07:11:15;;;;;;;32.03;20.30;;;4.80;99.90;;;4.17;87.88;101410.91;4220851;28;20032;-78
2021/03/10 07:13:16;;;;;;;30.27;21.17;;;4.80;99.90;;;4.23;88.08;101420.97;4221394;28;20123;-77
2021/03/10 07:15:18;;;;;;;29.52;19.45;;;4.90;99.90;;;4.40;87.05;101421.53;4219554;28;20534;-78
2021/03/10 07:17:23;;;;;;;29.90;19.55;;;5.00;99.90;;;4.44;87.72;101427.41;4220969;28;20111;-78
2021/03/10 07:19:24;;;;;;;34.17;20.42;;;5.00;99.90;;;4.42;87.79;101437.94;4219641;28;20447;-78
2021/03/10 07:21:41;;;;;;;26.95;19.48;;;5.10;99.90;;;4.44;87.86;101425.63;4215970;28;20028;-78
2021/03/10 07:23:48;;;;;;;30.25;19.75;;;5.20;99.90;;;4.60;86.87;101420.22;4218983;28;20024;-78
2021/03/10 07:25:51;;;;;;;30.98;19.95;;;5.60;99.90;;;4.67;87.01;101429.34;4210258;28;20028;-78
2021/03/10 07:28:06;;;;;;;32.40;19.10;;;5.30;99.90;;;4.64;88.04;101418.25;4214140;28;20518;-78
2021/03/10 07:30:08;;;;;;;28.55;19.60;;;5.30;99.90;;;4.97;86.50;101418.59;4218349;28;20515;-78
2021/03/10 07:32:10;;;;;;;30.70;18.13;;;5.50;99.90;;;4.63;86.97;101387.84;4211135;28;20035;-78
2021/03/10 07:34:11;;;;;;;32.55;18.95;;;5.50;99.90;;;4.79;87.83;101414.63;4219590;28;20020;-78
2021/03/10 07:36:12;;;;;;;28.70;18.30;;;5.50;99.90;;;4.83;87.50;101408.25;4217672;28;20024;-78
2021/03/10 07:38:14;;;;;;;28.50;19.08;;;5.60;99.90;;;4.96;87.10;101422.16;4219342;28;20111;-77
2021/03/10 07:40:16;;;;;;;27.60;18.63;;;5.60;99.90;;;4.96;87.75;101427.38;4219068;28;20078;-78
2021/03/10 07:42:18;;;;;;;26.23;18.15;;;5.70;99.90;;;5.07;87.47;101417.06;4220404;28;20081;-78
2021/03/10 07:44:26;;;;;;;26.38;17.60;;;5.80;99.90;;;5.27;86.70;101419.13;4220341;28;20024;-78
2021/03/10 07:46:37;;;;;;;31.95;19.23;;;5.80;99.90;;;5.08;87.71;101412.66;4219184;28;20028;-78
2021/03/10 07:48:38;;;;;;;25.92;17.60;;;6.00;99.90;;;5.34;87.28;101416.94;4212290;28;20056;-78
2021/03/10 07:50:46;;;;;;;27.88;18.13;;;6.10;99.90;;;5.43;86.77;101422.38;4219054;28;20576;-78
2021/03/10 07:52:54;;;;;;;26.55;18.88;;;6.10;99.90;;;5.59;87.43;101432.59;4220319;28;20030;-78
2021/03/10 07:55:02;;;;;;;25.92;18.58;;;6.20;99.90;;;5.67;87.23;101425.06;4220379;28;20111;-78
2021/03/10 07:57:15;;;;;;;27.45;17.60;;;6.40;99.90;;;5.61;86.85;101411.56;4218632;28;20530;-78
2021/03/10 07:59:19;;;;;;;30.67;18.25;;;6.40;99.90;;;5.80;86.66;101422.38;4219039;28;20043;-78
2021/03/10 08:01:20;;;;;;;28.63;18.40;;;6.50;99.90;;;5.90;86.72;101426.91;4220369;28;20025;-78
2021/03/10 08:03:33;;;;;;;25.42;16.85;;;6.60;99.90;;;5.99;85.82;101418.41;4219064;28;20066;-78
2021/03/10 08:05:35;;;;;;;23.88;17.60;;;6.70;99.90;;;6.03;86.17;101424.25;4220117;28;20034;-78
2021/03/10 08:07:36;;;;;;;26.45;16.67;;;6.70;99.90;;;6.08;86.44;101424.75;4220259;28;20028;-78
2021/03/10 08:09:37;;;;;;;23.58;16.13;;;6.90;99.90;;;6.14;86.35;101421.69;4219711;28;20023;-78
2021/03/10 08:11:43;;;;;;;23.42;15.35;;;6.90;99.90;;;6.36;85.44;101423.59;4218313;28;20032;-78
2021/03/10 08:13:47;;;;;;;25.98;16.92;;;7.00;99.90;;;6.41;85.17;101421.47;4219959;28;20020;-78
2021/03/10 08:15:49;;;;;;;23.85;15.57;;;7.10;99.90;;;6.38;85.40;101425.16;4220020;28;20119;-78
2021/03/10 08:18:01;;;;;;;21.25;14.90;;;7.20;99.90;;;6.56;84.51;101431.66;4218836;28;20446;-78
2021/03/10 08:20:06;;;;;;;22.45;14.35;;;7.30;99.90;;;6.59;84.55;101434.06;4219942;28;20028;-78
2021/03/10 08:22:07;;;;;;;19.30;13.93;;;7.40;99.90;;;6.62;84.07;101423.34;4219392;28;20028;-78
2021/03/10 08:24:08;;;;;;;20.63;14.00;;;7.50;99.90;;;6.90;83.84;101429.97;4218607;28;20042;-78
2021/03/10 08:26:10;;;;;;;21.10;15.25;;;7.60;99.90;;;6.91;83.21;101426.41;4219598;28;20028;-79
2021/03/10 08:28:15;;;;;;;18.58;13.70;;;7.70;99.90;;;6.81;82.51;101409.69;4218522;28;20119;-79
2021/03/10 08:30:24;;;;;;;18.83;13.35;;;7.80;99.90;;;7.11;82.40;101433.59;4219725;28;20028;-78
2021/03/10 08:32:30;;;;;;;20.40;12.73;;;7.80;99.90;;;7.06;82.74;101413.91;4209225;28;20401;-78